sensor_id;sensor_type;location;lat;lon;timestamp;temperature;humidity
42199;DHT22;27868;45.184;5.786;2022-10-16T00:02:32;17.90;90.60
42199;DHT22;27868;45.184;5.786;2022-10-16T00:05:17;17.90;90.70
42199;DHT22;27868;45.184;5.786;2022-10-16T00:08:01;17.80;90.70
42199;DHT22;27868;45.184;5.786;2022-10-16T00:10:47;17.80;90.70
42199;DHT22;27868;45.184;5.786;2022-10-16T00:13:33;17.80;90.80
42199;DHT22;27868;45.184;5.786;2022-10-16T00:16:18;17.80;90.80
42199;DHT22;27868;45.184;5.786;2022-10-16T00:19:03;17.80;90.90
42199;DHT22;27868;45.184;5.786;2022-10-16T00:21:48;17.80;90.90
42199;DHT22;27868;45.184;5.786;2022-10-16T00:24:33;17.80;91.10
42199;DHT22;27868;45.184;5.786;2022-10-16T00:27:17;17.70;90.90
42199;DHT22;27868;45.184;5.786;2022-10-16T00:30:03;17.70;91.00
42199;DHT22;27868;45.184;5.786;2022-10-16T00:32:48;17.70;90.90
42199;DHT22;27868;45.184;5.786;2022-10-16T00:35:32;17.70;90.90
42199;DHT22;27868;45.184;5.786;2022-10-16T00:38:16;17.70;90.90
42199;DHT22;27868;45.184;5.786;2022-10-16T00:41:01;17.60;90.90
42199;DHT22;27868;45.184;5.786;2022-10-16T00:43:54;17.70;90.90
42199;DHT22;27868;45.184;5.786;2022-10-16T00:46:41;17.70;91.00
42199;DHT22;27868;45.184;5.786;2022-10-16T00:49:26;17.60;91.00
42199;DHT22;27868;45.184;5.786;2022-10-16T00:52:12;17.60;90.90
42199;DHT22;27868;45.184;5.786;2022-10-16T00:54:58;17.60;90.90
42199;DHT22;27868;45.184;5.786;2022-10-16T00:57:44;17.60;90.80
42199;DHT22;27868;45.184;5.786;2022-10-16T01:00:29;17.60;90.70
42199;DHT22;27868;45.184;5.786;2022-10-16T01:03:32;17.60;90.70
42199;DHT22;27868;45.184;5.786;2022-10-16T01:09:59;17.50;90.70
42199;DHT22;27868;45.184;5.786;2022-10-16T01:12:49;17.50;90.80
42199;DHT22;27868;45.184;5.786;2022-10-16T01:15:45;17.50;90.90
42199;DHT22;27868;45.184;5.786;2022-10-16T01:19:05;17.50;91.00
42199;DHT22;27868;45.184;5.786;2022-10-16T01:21:53;17.40;90.70
42199;DHT22;27868;45.184;5.786;2022-10-16T01:24:48;17.40;90.80
42199;DHT22;27868;45.184;5.786;2022-10-16T01:27:36;17.40;90.70
42199;DHT22;27868;45.184;5.786;2022-10-16T01:30:30;17.40;90.70
42199;DHT22;27868;45.184;5.786;2022-10-16T01:33:23;17.40;90.50
42199;DHT22;27868;45.184;5.786;2022-10-16T01:36:19;17.40;90.60
42199;DHT22;27868;45.184;5.786;2022-10-16T01:39:07;17.40;90.60
42199;DHT22;27868;45.184;5.786;2022-10-16T01:42:19;17.30;90.50
42199;DHT22;27868;45.184;5.786;2022-10-16T01:45:02;17.30;90.50
42199;DHT22;27868;45.184;5.786;2022-10-16T01:47:52;17.30;90.50
42199;DHT22;27868;45.184;5.786;2022-10-16T01:50:39;17.20;90.50
42199;DHT22;27868;45.184;5.786;2022-10-16T01:53:26;17.30;90.60
42199;DHT22;27868;45.184;5.786;2022-10-16T01:56:13;17.20;90.60
42199;DHT22;27868;45.184;5.786;2022-10-16T01:59:03;17.20;90.50
42199;DHT22;27868;45.184;5.786;2022-10-16T02:01:52;17.20;90.60
42199;DHT22;27868;45.184;5.786;2022-10-16T02:05:05;17.20;90.60
42199;DHT22;27868;45.184;5.786;2022-10-16T02:07:53;17.20;90.60
42199;DHT22;27868;45.184;5.786;2022-10-16T02:10:39;17.10;90.50
42199;DHT22;27868;45.184;5.786;2022-10-16T02:13:40;17.20;90.60
42199;DHT22;27868;45.184;5.786;2022-10-16T02:16:39;17.10;90.50
42199;DHT22;27868;45.184;5.786;2022-10-16T02:19:24;17.10;90.40
42199;DHT22;27868;45.184;5.786;2022-10-16T02:22:14;17.10;90.40
42199;DHT22;27868;45.184;5.786;2022-10-16T02:25:29;17.10;90.50
42199;DHT22;27868;45.184;5.786;2022-10-16T02:28:22;17.00;90.40
42199;DHT22;27868;45.184;5.786;2022-10-16T02:31:11;17.00;90.50
42199;DHT22;27868;45.184;5.786;2022-10-16T02:33:58;17.00;90.50
42199;DHT22;27868;45.184;5.786;2022-10-16T02:36:44;17.00;90.50
42199;DHT22;27868;45.184;5.786;2022-10-16T02:39:31;17.00;90.50
42199;DHT22;27868;45.184;5.786;2022-10-16T02:42:18;16.90;90.50
42199;DHT22;27868;45.184;5.786;2022-10-16T02:45:04;16.90;90.50
42199;DHT22;27868;45.184;5.786;2022-10-16T02:47:49;16.90;90.50
42199;DHT22;27868;45.184;5.786;2022-10-16T02:50:34;16.90;90.40
42199;DHT22;27868;45.184;5.786;2022-10-16T02:53:19;16.90;90.30
42199;DHT22;27868;45.184;5.786;2022-10-16T02:56:04;16.80;90.30
42199;DHT22;27868;45.184;5.786;2022-10-16T02:58:48;16.80;90.30
42199;DHT22;27868;45.184;5.786;2022-10-16T03:01:32;16.80;90.30
42199;DHT22;27868;45.184;5.786;2022-10-16T03:04:18;16.80;90.30
42199;DHT22;27868;45.184;5.786;2022-10-16T03:07:02;16.70;90.30
42199;DHT22;27868;45.184;5.786;2022-10-16T03:09:47;16.70;90.30
42199;DHT22;27868;45.184;5.786;2022-10-16T03:12:32;16.70;90.30
42199;DHT22;27868;45.184;5.786;2022-10-16T03:15:17;16.70;90.30
42199;DHT22;27868;45.184;5.786;2022-10-16T03:18:02;16.70;90.20
42199;DHT22;27868;45.184;5.786;2022-10-16T03:20:46;16.70;90.20
42199;DHT22;27868;45.184;5.786;2022-10-16T03:23:31;16.60;90.30
42199;DHT22;27868;45.184;5.786;2022-10-16T03:26:15;16.60;90.30
42199;DHT22;27868;45.184;5.786;2022-10-16T03:29:00;16.60;90.40
42199;DHT22;27868;45.184;5.786;2022-10-16T03:31:46;16.50;90.40
42199;DHT22;27868;45.184;5.786;2022-10-16T03:34:32;16.50;90.40
42199;DHT22;27868;45.184;5.786;2022-10-16T03:37:17;16.60;90.40
42199;DHT22;27868;45.184;5.786;2022-10-16T03:40:02;16.50;90.50
42199;DHT22;27868;45.184;5.786;2022-10-16T03:42:47;16.50;90.50
42199;DHT22;27868;45.184;5.786;2022-10-16T03:45:32;16.40;90.50
42199;DHT22;27868;45.184;5.786;2022-10-16T03:48:16;16.50;90.50
42199;DHT22;27868;45.184;5.786;2022-10-16T03:51:01;16.40;90.40
42199;DHT22;27868;45.184;5.786;2022-10-16T03:53:45;16.40;90.30
42199;DHT22;27868;45.184;5.786;2022-10-16T03:56:30;16.40;90.20
42199;DHT22;27868;45.184;5.786;2022-10-16T03:59:15;16.40;90.40
42199;DHT22;27868;45.184;5.786;2022-10-16T04:01:59;16.30;90.40
42199;DHT22;27868;45.184;5.786;2022-10-16T04:04:44;16.30;90.50
42199;DHT22;27868;45.184;5.786;2022-10-16T04:07:28;16.30;90.50
42199;DHT22;27868;45.184;5.786;2022-10-16T04:10:13;16.30;90.50
42199;DHT22;27868;45.184;5.786;2022-10-16T04:12:58;16.30;90.50
42199;DHT22;27868;45.184;5.786;2022-10-16T04:15:44;16.30;90.70
42199;DHT22;27868;45.184;5.786;2022-10-16T04:18:29;16.30;90.80
42199;DHT22;27868;45.184;5.786;2022-10-16T04:21:13;16.30;90.80
42199;DHT22;27868;45.184;5.786;2022-10-16T04:23:58;16.30;90.80
42199;DHT22;27868;45.184;5.786;2022-10-16T04:26:42;16.20;90.80
42199;DHT22;27868;45.184;5.786;2022-10-16T04:29:27;16.20;90.80
42199;DHT22;27868;45.184;5.786;2022-10-16T04:32:11;16.20;90.70
42199;DHT22;27868;45.184;5.786;2022-10-16T04:34:56;16.20;90.70
42199;DHT22;27868;45.184;5.786;2022-10-16T04:37:40;16.10;90.70
42199;DHT22;27868;45.184;5.786;2022-10-16T04:40:24;16.10;90.70
42199;DHT22;27868;45.184;5.786;2022-10-16T04:43:09;16.10;90.90
42199;DHT22;27868;45.184;5.786;2022-10-16T04:45:55;16.10;91.30
42199;DHT22;27868;45.184;5.786;2022-10-16T04:48:40;16.10;91.00
42199;DHT22;27868;45.184;5.786;2022-10-16T04:51:25;16.10;90.90
42199;DHT22;27868;45.184;5.786;2022-10-16T04:54:10;16.10;91.00
42199;DHT22;27868;45.184;5.786;2022-10-16T04:56:55;16.10;91.00
42199;DHT22;27868;45.184;5.786;2022-10-16T04:59:39;16.10;91.00
42199;DHT22;27868;45.184;5.786;2022-10-16T05:02:23;16.10;91.00
42199;DHT22;27868;45.184;5.786;2022-10-16T05:05:08;16.10;91.10
42199;DHT22;27868;45.184;5.786;2022-10-16T05:07:53;16.00;91.10
42199;DHT22;27868;45.184;5.786;2022-10-16T05:10:38;16.00;91.20
42199;DHT22;27868;45.184;5.786;2022-10-16T05:13:22;16.00;91.20
42199;DHT22;27868;45.184;5.786;2022-10-16T05:16:08;16.00;91.20
42199;DHT22;27868;45.184;5.786;2022-10-16T05:18:52;16.00;91.50
42199;DHT22;27868;45.184;5.786;2022-10-16T05:21:37;16.00;91.20
42199;DHT22;27868;45.184;5.786;2022-10-16T05:24:22;16.00;91.20
42199;DHT22;27868;45.184;5.786;2022-10-16T05:27:07;16.00;91.20
42199;DHT22;27868;45.184;5.786;2022-10-16T05:29:52;16.00;91.00
42199;DHT22;27868;45.184;5.786;2022-10-16T05:32:36;16.00;91.00
42199;DHT22;27868;45.184;5.786;2022-10-16T05:35:21;15.90;90.80
42199;DHT22;27868;45.184;5.786;2022-10-16T05:38:06;15.90;90.70
42199;DHT22;27868;45.184;5.786;2022-10-16T05:40:51;15.90;90.70
42199;DHT22;27868;45.184;5.786;2022-10-16T05:43:37;15.80;90.60
42199;DHT22;27868;45.184;5.786;2022-10-16T05:46:21;15.80;90.80
42199;DHT22;27868;45.184;5.786;2022-10-16T05:49:06;15.90;90.90
42199;DHT22;27868;45.184;5.786;2022-10-16T05:51:50;15.80;90.80
42199;DHT22;27868;45.184;5.786;2022-10-16T05:54:35;15.80;90.70
42199;DHT22;27868;45.184;5.786;2022-10-16T05:57:19;15.80;90.70
42199;DHT22;27868;45.184;5.786;2022-10-16T06:00:05;15.70;90.60
42199;DHT22;27868;45.184;5.786;2022-10-16T06:02:50;15.80;90.80
42199;DHT22;27868;45.184;5.786;2022-10-16T06:05:34;15.70;90.80
42199;DHT22;27868;45.184;5.786;2022-10-16T06:08:20;15.70;90.80
42199;DHT22;27868;45.184;5.786;2022-10-16T06:11:07;15.70;90.80
42199;DHT22;27868;45.184;5.786;2022-10-16T06:13:53;15.70;90.80
42199;DHT22;27868;45.184;5.786;2022-10-16T06:16:38;15.60;90.90
42199;DHT22;27868;45.184;5.786;2022-10-16T06:19:23;15.60;91.00
42199;DHT22;27868;45.184;5.786;2022-10-16T06:22:08;15.60;91.10
42199;DHT22;27868;45.184;5.786;2022-10-16T06:24:52;15.60;91.20
42199;DHT22;27868;45.184;5.786;2022-10-16T06:27:40;15.70;91.10
42199;DHT22;27868;45.184;5.786;2022-10-16T06:30:25;15.70;91.10
42199;DHT22;27868;45.184;5.786;2022-10-16T06:33:12;15.60;91.20
42199;DHT22;27868;45.184;5.786;2022-10-16T06:36:11;15.60;91.30
42199;DHT22;27868;45.184;5.786;2022-10-16T06:38:56;15.70;91.40
42199;DHT22;27868;45.184;5.786;2022-10-16T06:41:41;15.60;91.40
42199;DHT22;27868;45.184;5.786;2022-10-16T06:44:25;15.60;91.40
42199;DHT22;27868;45.184;5.786;2022-10-16T06:47:10;15.60;91.30
42199;DHT22;27868;45.184;5.786;2022-10-16T06:49:55;15.60;91.30
42199;DHT22;27868;45.184;5.786;2022-10-16T06:52:40;15.60;91.40
42199;DHT22;27868;45.184;5.786;2022-10-16T06:55:24;15.60;91.50
42199;DHT22;27868;45.184;5.786;2022-10-16T06:58:29;15.60;91.50
42199;DHT22;27868;45.184;5.786;2022-10-16T07:01:16;15.60;91.60
42199;DHT22;27868;45.184;5.786;2022-10-16T07:04:27;15.60;91.60
42199;DHT22;27868;45.184;5.786;2022-10-16T16:12:47;25.10;53.30
42199;DHT22;27868;45.184;5.786;2022-10-16T16:15:39;25.10;53.50
42199;DHT22;27868;45.184;5.786;2022-10-16T16:18:25;25.00;53.60
42199;DHT22;27868;45.184;5.786;2022-10-16T16:21:11;25.00;54.00
42199;DHT22;27868;45.184;5.786;2022-10-16T16:23:56;25.00;54.00
42199;DHT22;27868;45.184;5.786;2022-10-16T16:26:40;24.90;54.10
42199;DHT22;27868;45.184;5.786;2022-10-16T16:29:27;24.80;54.60
42199;DHT22;27868;45.184;5.786;2022-10-16T16:32:12;24.80;54.70
42199;DHT22;27868;45.184;5.786;2022-10-16T16:34:56;24.80;54.60
42199;DHT22;27868;45.184;5.786;2022-10-16T16:37:41;24.70;54.60
42199;DHT22;27868;45.184;5.786;2022-10-16T16:40:27;24.70;54.60
42199;DHT22;27868;45.184;5.786;2022-10-16T16:43:11;24.60;54.70
42199;DHT22;27868;45.184;5.786;2022-10-16T16:46:01;24.60;54.70
42199;DHT22;27868;45.184;5.786;2022-10-16T16:48:45;24.50;55.20
42199;DHT22;27868;45.184;5.786;2022-10-16T16:51:31;24.40;55.30
42199;DHT22;27868;45.184;5.786;2022-10-16T16:54:15;24.40;55.70
42199;DHT22;27868;45.184;5.786;2022-10-16T16:57:00;24.40;55.70
42199;DHT22;27868;45.184;5.786;2022-10-16T16:59:45;24.30;55.60
42199;DHT22;27868;45.184;5.786;2022-10-16T17:02:30;24.30;55.80
42199;DHT22;27868;45.184;5.786;2022-10-16T17:05:14;24.30;56.20
42199;DHT22;27868;45.184;5.786;2022-10-16T17:07:59;24.20;56.40
42199;DHT22;27868;45.184;5.786;2022-10-16T17:10:44;24.20;56.90
42199;DHT22;27868;45.184;5.786;2022-10-16T17:13:31;24.10;57.00
42199;DHT22;27868;45.184;5.786;2022-10-16T17:16:16;24.10;56.70
42199;DHT22;27868;45.184;5.786;2022-10-16T17:19:02;24.00;56.70
42199;DHT22;27868;45.184;5.786;2022-10-16T17:21:49;24.00;56.70
42199;DHT22;27868;45.184;5.786;2022-10-16T17:24:34;23.90;56.60
42199;DHT22;27868;45.184;5.786;2022-10-16T17:27:18;23.90;57.00
42199;DHT22;27868;45.184;5.786;2022-10-16T17:30:04;23.80;56.80
42199;DHT22;27868;45.184;5.786;2022-10-16T17:32:49;23.80;56.90
42199;DHT22;27868;45.184;5.786;2022-10-16T17:35:39;23.80;56.80
42199;DHT22;27868;45.184;5.786;2022-10-16T17:38:24;23.70;56.50
42199;DHT22;27868;45.184;5.786;2022-10-16T17:41:15;23.70;56.60
42199;DHT22;27868;45.184;5.786;2022-10-16T17:44:01;23.70;56.60
42199;DHT22;27868;45.184;5.786;2022-10-16T17:46:50;23.60;56.70
42199;DHT22;27868;45.184;5.786;2022-10-16T17:49:35;23.60;57.00
42199;DHT22;27868;45.184;5.786;2022-10-16T17:52:20;23.50;57.70
42199;DHT22;27868;45.184;5.786;2022-10-16T17:55:05;23.50;58.10
42199;DHT22;27868;45.184;5.786;2022-10-16T17:57:50;23.50;58.20
42199;DHT22;27868;45.184;5.786;2022-10-16T18:00:36;23.40;58.50
42199;DHT22;27868;45.184;5.786;2022-10-16T18:03:21;23.40;58.60
42199;DHT22;27868;45.184;5.786;2022-10-16T18:06:05;23.30;58.60
42199;DHT22;27868;45.184;5.786;2022-10-16T18:08:51;23.30;58.60
42199;DHT22;27868;45.184;5.786;2022-10-16T18:11:36;23.20;58.20
42199;DHT22;27868;45.184;5.786;2022-10-16T18:14:21;23.20;58.70
42199;DHT22;27868;45.184;5.786;2022-10-16T18:17:06;23.10;59.40
42199;DHT22;27868;45.184;5.786;2022-10-16T18:19:50;23.10;59.50
42199;DHT22;27868;45.184;5.786;2022-10-16T18:22:35;23.10;59.70
42199;DHT22;27868;45.184;5.786;2022-10-16T18:25:20;23.00;59.90
42199;DHT22;27868;45.184;5.786;2022-10-16T18:28:04;23.00;60.30
42199;DHT22;27868;45.184;5.786;2022-10-16T18:30:55;23.00;61.10
42199;DHT22;27868;45.184;5.786;2022-10-16T18:33:41;22.90;60.60
42199;DHT22;27868;45.184;5.786;2022-10-16T18:36:35;22.90;61.00
42199;DHT22;27868;45.184;5.786;2022-10-16T18:39:20;22.80;61.50
42199;DHT22;27868;45.184;5.786;2022-10-16T18:42:07;22.70;61.80
42199;DHT22;27868;45.184;5.786;2022-10-16T18:44:51;22.70;62.20
42199;DHT22;27868;45.184;5.786;2022-10-16T18:47:36;22.60;62.20
42199;DHT22;27868;45.184;5.786;2022-10-16T18:50:21;22.60;62.40
42199;DHT22;27868;45.184;5.786;2022-10-16T18:53:06;22.50;62.70
42199;DHT22;27868;45.184;5.786;2022-10-16T18:55:51;22.50;63.00
42199;DHT22;27868;45.184;5.786;2022-10-16T18:58:37;22.40;63.20
42199;DHT22;27868;45.184;5.786;2022-10-16T19:01:23;22.40;63.10
42199;DHT22;27868;45.184;5.786;2022-10-16T19:04:13;22.30;63.30
42199;DHT22;27868;45.184;5.786;2022-10-16T19:06:59;22.30;63.70
42199;DHT22;27868;45.184;5.786;2022-10-16T19:09:44;22.20;63.80
42199;DHT22;27868;45.184;5.786;2022-10-16T19:12:28;22.10;63.90
42199;DHT22;27868;45.184;5.786;2022-10-16T19:15:13;22.10;64.00
42199;DHT22;27868;45.184;5.786;2022-10-16T19:17:58;22.10;64.20
42199;DHT22;27868;45.184;5.786;2022-10-16T19:20:43;22.00;64.40
42199;DHT22;27868;45.184;5.786;2022-10-16T19:23:27;21.90;64.50
42199;DHT22;27868;45.184;5.786;2022-10-16T19:26:16;21.90;64.50
42199;DHT22;27868;45.184;5.786;2022-10-16T19:29:03;21.90;64.80
42199;DHT22;27868;45.184;5.786;2022-10-16T19:31:48;21.80;64.70
42199;DHT22;27868;45.184;5.786;2022-10-16T19:34:32;21.70;65.00
42199;DHT22;27868;45.184;5.786;2022-10-16T19:37:17;21.70;65.50
42199;DHT22;27868;45.184;5.786;2022-10-16T19:40:04;21.60;65.80
42199;DHT22;27868;45.184;5.786;2022-10-16T19:42:48;21.60;66.60
42199;DHT22;27868;45.184;5.786;2022-10-16T19:45:33;21.50;66.10
42199;DHT22;27868;45.184;5.786;2022-10-16T19:48:18;21.50;66.20
42199;DHT22;27868;45.184;5.786;2022-10-16T19:51:03;21.50;66.50
42199;DHT22;27868;45.184;5.786;2022-10-16T19:53:53;21.40;66.60
42199;DHT22;27868;45.184;5.786;2022-10-16T19:56:39;21.40;66.70
42199;DHT22;27868;45.184;5.786;2022-10-16T19:59:24;21.30;66.60
42199;DHT22;27868;45.184;5.786;2022-10-16T20:02:09;21.30;67.20
42199;DHT22;27868;45.184;5.786;2022-10-16T20:04:54;21.20;67.30
42199;DHT22;27868;45.184;5.786;2022-10-16T20:07:39;21.20;67.40
42199;DHT22;27868;45.184;5.786;2022-10-16T20:10:24;21.20;67.70
42199;DHT22;27868;45.184;5.786;2022-10-16T20:13:09;21.20;67.70
42199;DHT22;27868;45.184;5.786;2022-10-16T20:15:54;21.20;67.70
42199;DHT22;27868;45.184;5.786;2022-10-16T20:18:39;21.10;67.70
42199;DHT22;27868;45.184;5.786;2022-10-16T20:21:30;21.10;67.90
42199;DHT22;27868;45.184;5.786;2022-10-16T20:24:14;21.00;68.00
42199;DHT22;27868;45.184;5.786;2022-10-16T20:26:59;21.00;68.00
42199;DHT22;27868;45.184;5.786;2022-10-16T20:29:44;21.00;68.40
42199;DHT22;27868;45.184;5.786;2022-10-16T20:32:29;20.90;68.50
42199;DHT22;27868;45.184;5.786;2022-10-16T20:35:13;20.90;68.90
42199;DHT22;27868;45.184;5.786;2022-10-16T20:37:58;20.90;69.30
42199;DHT22;27868;45.184;5.786;2022-10-16T20:40:44;20.80;69.50
42199;DHT22;27868;45.184;5.786;2022-10-16T20:43:30;20.80;69.80
42199;DHT22;27868;45.184;5.786;2022-10-16T20:46:18;20.80;70.00
42199;DHT22;27868;45.184;5.786;2022-10-16T20:49:03;20.80;70.00
42199;DHT22;27868;45.184;5.786;2022-10-16T20:51:47;20.70;70.00
42199;DHT22;27868;45.184;5.786;2022-10-16T20:54:33;20.70;69.90
42199;DHT22;27868;45.184;5.786;2022-10-16T20:57:17;20.70;70.00
42199;DHT22;27868;45.184;5.786;2022-10-16T21:00:04;20.60;69.90
42199;DHT22;27868;45.184;5.786;2022-10-16T21:02:49;20.60;69.80
42199;DHT22;27868;45.184;5.786;2022-10-16T21:05:41;20.50;69.90
42199;DHT22;27868;45.184;5.786;2022-10-16T21:08:26;20.50;70.00
42199;DHT22;27868;45.184;5.786;2022-10-16T21:11:18;20.40;70.00
42199;DHT22;27868;45.184;5.786;2022-10-16T21:14:05;20.40;70.00
42199;DHT22;27868;45.184;5.786;2022-10-16T21:16:50;20.40;70.00
42199;DHT22;27868;45.184;5.786;2022-10-16T21:19:35;20.40;70.00
42199;DHT22;27868;45.184;5.786;2022-10-16T21:22:20;20.30;70.00
42199;DHT22;27868;45.184;5.786;2022-10-16T21:25:05;20.30;70.10
42199;DHT22;27868;45.184;5.786;2022-10-16T21:27:49;20.30;70.20
42199;DHT22;27868;45.184;5.786;2022-10-16T21:30:34;20.30;70.20
42199;DHT22;27868;45.184;5.786;2022-10-16T21:33:19;20.20;70.10
42199;DHT22;27868;45.184;5.786;2022-10-16T21:36:14;20.20;70.50
42199;DHT22;27868;45.184;5.786;2022-10-16T21:39:01;20.20;70.70
42199;DHT22;27868;45.184;5.786;2022-10-16T21:41:48;20.20;71.00
42199;DHT22;27868;45.184;5.786;2022-10-16T21:44:33;20.10;71.30
42199;DHT22;27868;45.184;5.786;2022-10-16T21:47:17;20.10;71.40
42199;DHT22;27868;45.184;5.786;2022-10-16T21:50:02;20.10;71.50
42199;DHT22;27868;45.184;5.786;2022-10-16T21:52:47;20.10;71.30
42199;DHT22;27868;45.184;5.786;2022-10-16T21:55:35;20.00;71.20
42199;DHT22;27868;45.184;5.786;2022-10-16T21:58:19;20.10;71.40
42199;DHT22;27868;45.184;5.786;2022-10-16T22:01:16;20.00;71.20
42199;DHT22;27868;45.184;5.786;2022-10-16T22:04:01;20.00;71.10
42199;DHT22;27868;45.184;5.786;2022-10-16T22:06:46;19.90;71.10
42199;DHT22;27868;45.184;5.786;2022-10-16T22:09:31;19.90;71.20
42199;DHT22;27868;45.184;5.786;2022-10-16T22:12:16;19.90;71.20
42199;DHT22;27868;45.184;5.786;2022-10-16T22:15:03;19.90;71.40
42199;DHT22;27868;45.184;5.786;2022-10-16T22:17:48;19.90;71.50
42199;DHT22;27868;45.184;5.786;2022-10-16T22:20:32;19.80;71.50
42199;DHT22;27868;45.184;5.786;2022-10-16T22:23:17;19.80;71.50
42199;DHT22;27868;45.184;5.786;2022-10-16T22:26:06;19.80;71.60
42199;DHT22;27868;45.184;5.786;2022-10-16T22:28:51;19.80;71.70
42199;DHT22;27868;45.184;5.786;2022-10-16T22:31:35;19.80;71.70
42199;DHT22;27868;45.184;5.786;2022-10-16T22:34:19;19.80;72.00
42199;DHT22;27868;45.184;5.786;2022-10-16T22:37:04;19.80;72.00
42199;DHT22;27868;45.184;5.786;2022-10-16T22:39:49;19.80;71.90
42199;DHT22;27868;45.184;5.786;2022-10-16T22:42:33;19.80;71.80
42199;DHT22;27868;45.184;5.786;2022-10-16T22:45:18;19.80;71.70
42199;DHT22;27868;45.184;5.786;2022-10-16T22:48:03;19.80;71.90
42199;DHT22;27868;45.184;5.786;2022-10-16T22:50:48;19.70;71.90
42199;DHT22;27868;45.184;5.786;2022-10-16T22:53:33;19.70;71.90
42199;DHT22;27868;45.184;5.786;2022-10-16T22:56:19;19.70;72.00
42199;DHT22;27868;45.184;5.786;2022-10-16T22:59:04;19.70;72.20
42199;DHT22;27868;45.184;5.786;2022-10-16T23:01:49;19.60;72.40
42199;DHT22;27868;45.184;5.786;2022-10-16T23:04:33;19.60;72.50
42199;DHT22;27868;45.184;5.786;2022-10-16T23:07:18;19.60;72.70
42199;DHT22;27868;45.184;5.786;2022-10-16T23:10:07;19.60;72.70
42199;DHT22;27868;45.184;5.786;2022-10-16T23:12:52;19.50;72.80
42199;DHT22;27868;45.184;5.786;2022-10-16T23:15:41;19.50;72.80
42199;DHT22;27868;45.184;5.786;2022-10-16T23:18:26;19.50;72.90
42199;DHT22;27868;45.184;5.786;2022-10-16T23:21:13;19.50;73.00
42199;DHT22;27868;45.184;5.786;2022-10-16T23:23:58;19.40;73.30
42199;DHT22;27868;45.184;5.786;2022-10-16T23:26:43;19.40;73.40
42199;DHT22;27868;45.184;5.786;2022-10-16T23:29:28;19.40;73.60
42199;DHT22;27868;45.184;5.786;2022-10-16T23:32:13;19.30;73.50
42199;DHT22;27868;45.184;5.786;2022-10-16T23:34:57;19.40;73.80
42199;DHT22;27868;45.184;5.786;2022-10-16T23:37:42;19.30;73.80
42199;DHT22;27868;45.184;5.786;2022-10-16T23:40:26;19.30;74.00
42199;DHT22;27868;45.184;5.786;2022-10-16T23:43:11;19.30;74.10
42199;DHT22;27868;45.184;5.786;2022-10-16T23:45:55;19.30;74.10
42199;DHT22;27868;45.184;5.786;2022-10-16T23:48:40;19.30;74.20
42199;DHT22;27868;45.184;5.786;2022-10-16T23:51:24;19.30;74.40
42199;DHT22;27868;45.184;5.786;2022-10-16T23:54:09;19.30;74.30
42199;DHT22;27868;45.184;5.786;2022-10-16T23:56:54;19.20;74.60
42199;DHT22;27868;45.184;5.786;2022-10-16T23:59:38;19.20;74.50
